createdAt,value
2018-07-13T00:02:18.872Z,4.50
2018-07-13T00:04:47.460Z,5.07
2018-07-13T00:07:16.060Z,4.80
2018-07-13T00:09:45.457Z,4.50
2018-07-13T00:12:14.072Z,4.87
2018-07-13T00:15:19.827Z,5.10
2018-07-13T00:17:48.408Z,5.20
2018-07-13T00:20:17.024Z,4.87
2018-07-13T00:22:45.617Z,5.40
2018-07-13T00:25:14.285Z,4.87
2018-07-13T00:27:42.873Z,4.90
2018-07-13T00:30:11.536Z,5.97
2018-07-13T00:32:40.191Z,4.97
2018-07-13T00:35:08.781Z,5.03
2018-07-13T00:37:37.374Z,4.90
2018-07-13T00:40:06.029Z,5.57
2018-07-13T00:42:34.608Z,4.70
2018-07-13T00:45:03.257Z,5.47
2018-07-13T00:47:31.831Z,5.43
2018-07-13T00:50:00.451Z,4.23
2018-07-13T00:52:29.052Z,4.90
2018-07-13T00:54:57.644Z,4.43
2018-07-13T00:57:26.245Z,4.80
2018-07-13T00:59:54.969Z,5.20
2018-07-13T01:02:23.574Z,5.03
2018-07-13T01:04:52.203Z,5.20
2018-07-13T01:07:20.838Z,4.90
2018-07-13T01:09:49.408Z,4.60
2018-07-13T01:12:18.029Z,4.80
2018-07-13T01:14:46.696Z,4.40
2018-07-13T01:17:15.270Z,4.60
2018-07-13T01:19:43.841Z,4.63
2018-07-13T01:22:12.476Z,4.10
2018-07-13T01:24:41.569Z,4.03
2018-07-13T01:27:10.129Z,4.70
2018-07-13T01:29:38.728Z,4.40
2018-07-13T01:32:07.463Z,4.10
2018-07-13T01:34:36.060Z,4.30
2018-07-13T01:37:04.687Z,3.67
2018-07-13T01:39:33.242Z,3.70
2018-07-13T01:42:01.800Z,4.37
2018-07-13T01:44:30.409Z,4.20
2018-07-13T01:46:58.992Z,4.07
2018-07-13T01:49:27.641Z,4.20
2018-07-13T01:51:56.228Z,4.10
2018-07-13T01:54:24.792Z,4.23
2018-07-13T01:56:53.402Z,4.00
2018-07-13T01:59:21.987Z,4.20
2018-07-13T02:01:50.578Z,4.50
2018-07-13T02:04:19.173Z,4.53
2018-07-13T02:06:48.278Z,3.80
2018-07-13T02:09:16.921Z,4.60
2018-07-13T02:11:45.549Z,4.50
2018-07-13T02:14:14.178Z,4.13
2018-07-13T02:16:43.277Z,3.83
2018-07-13T02:19:11.891Z,3.90
2018-07-13T02:21:40.584Z,4.20
2018-07-13T02:24:09.246Z,3.93
2018-07-13T02:26:37.843Z,4.23
2018-07-13T02:29:06.734Z,3.93
2018-07-13T02:31:35.857Z,4.43
2018-07-13T02:34:04.544Z,4.40
2018-07-13T02:36:33.121Z,4.40
2018-07-13T02:39:01.934Z,4.10
2018-07-13T02:41:30.481Z,3.93
2018-07-13T02:43:59.079Z,3.80
2018-07-13T02:46:27.709Z,4.33
2018-07-13T02:48:56.273Z,4.10
2018-07-13T02:51:24.921Z,4.43
2018-07-13T02:53:53.517Z,3.90
2018-07-13T02:56:22.078Z,3.83
2018-07-13T02:58:50.678Z,3.73
2018-07-13T03:01:19.294Z,3.83
2018-07-13T03:03:47.870Z,3.40
2018-07-13T03:06:16.461Z,4.00
2018-07-13T03:08:45.027Z,4.03
2018-07-13T03:11:13.625Z,4.13
2018-07-13T03:13:42.209Z,3.73
2018-07-13T03:16:11.469Z,3.67
2018-07-13T03:18:40.063Z,4.20
2018-07-13T03:21:08.754Z,4.20
2018-07-13T03:23:37.353Z,4.13
2018-07-13T03:26:06.042Z,4.17
2018-07-13T03:28:34.651Z,3.87
2018-07-13T03:31:03.258Z,4.10
2018-07-13T03:33:31.861Z,3.90
2018-07-13T03:36:00.431Z,3.83
2018-07-13T03:38:29.146Z,3.90
2018-07-13T03:40:57.661Z,4.17
2018-07-13T03:43:26.231Z,3.80
2018-07-13T03:45:54.814Z,3.70
2018-07-13T03:48:23.515Z,4.10
2018-07-13T03:50:52.100Z,3.97
2018-07-13T03:53:20.714Z,4.20
2018-07-13T03:55:49.352Z,3.70
2018-07-13T03:58:18.034Z,4.10
2018-07-13T04:00:46.621Z,4.00
2018-07-13T04:03:15.276Z,3.87
2018-07-13T04:05:43.869Z,4.47
2018-07-13T04:08:12.567Z,3.47
2018-07-13T04:10:41.197Z,3.17
2018-07-13T04:13:09.878Z,3.80
2018-07-13T04:15:38.528Z,3.70
2018-07-13T04:18:11.493Z,3.43
2018-07-13T04:20:40.153Z,3.33
2018-07-13T04:23:08.845Z,3.60
2018-07-13T04:25:37.522Z,3.83
2018-07-13T04:28:06.177Z,3.47
2018-07-13T04:30:34.809Z,3.47
2018-07-13T04:33:03.515Z,3.30
2018-07-13T04:35:32.126Z,3.50
2018-07-13T04:38:00.782Z,3.10
2018-07-13T04:40:29.528Z,3.70
2018-07-13T04:42:58.469Z,3.60
2018-07-13T04:45:27.280Z,3.70
2018-07-13T04:47:55.947Z,3.33
2018-07-13T04:50:24.726Z,3.30
2018-07-13T04:52:53.490Z,4.23
2018-07-13T04:55:22.260Z,3.10
2018-07-13T04:57:51.127Z,3.50
2018-07-13T05:00:19.889Z,3.37
2018-07-13T05:02:48.638Z,3.10
2018-07-13T05:05:17.266Z,3.13
2018-07-13T05:07:45.972Z,3.30
2018-07-13T05:10:14.639Z,3.23
2018-07-13T05:12:43.313Z,3.50
2018-07-13T05:15:11.975Z,3.47
2018-07-13T05:17:40.653Z,3.20
2018-07-13T05:20:09.283Z,3.40
2018-07-13T05:22:37.969Z,3.83
2018-07-13T05:25:07.581Z,3.57
2018-07-13T05:27:36.241Z,3.33
2018-07-13T05:30:05.401Z,3.30
2018-07-13T05:32:34.089Z,3.80
2018-07-13T05:35:02.802Z,3.80
2018-07-13T05:37:31.993Z,3.70
2018-07-13T05:40:02.027Z,3.53
2018-07-13T05:42:30.713Z,3.83
2018-07-13T05:44:59.314Z,3.80
2018-07-13T05:47:27.941Z,3.30
2018-07-13T05:49:57.560Z,3.70
2018-07-13T05:52:26.350Z,3.30
2018-07-13T05:54:55.001Z,3.00
2018-07-13T05:57:23.737Z,3.03
2018-07-13T05:59:52.444Z,3.87
2018-07-13T06:02:21.083Z,3.60
2018-07-13T06:04:49.801Z,4.10
2018-07-13T06:07:18.456Z,3.80
2018-07-13T06:09:47.113Z,3.50
2018-07-13T06:12:15.799Z,3.30
2018-07-13T06:14:44.460Z,3.60
2018-07-13T06:17:13.117Z,3.73
2018-07-13T06:19:41.733Z,3.40
2018-07-13T06:22:10.383Z,3.97
2018-07-13T06:24:38.957Z,3.40
2018-07-13T06:27:07.580Z,3.77
2018-07-13T06:29:36.209Z,3.10
2018-07-13T06:32:04.865Z,3.33
2018-07-13T06:34:33.506Z,3.40
2018-07-13T06:37:02.695Z,4.30
2018-07-13T06:39:31.321Z,3.47
2018-07-13T06:42:00.011Z,3.53
2018-07-13T06:44:28.801Z,3.83
2018-07-13T06:46:57.748Z,3.90
2018-07-13T06:49:26.424Z,3.50
2018-07-13T06:51:55.058Z,3.97
2018-07-13T06:54:23.859Z,3.80
2018-07-13T06:56:52.544Z,3.77
2018-07-13T06:59:22.431Z,3.77
2018-07-13T07:01:52.166Z,4.00
2018-07-13T07:04:31.982Z,3.30
2018-07-13T07:07:02.339Z,3.03
2018-07-13T07:09:31.830Z,3.90
2018-07-13T07:13:11.742Z,4.10
2018-07-13T07:15:40.564Z,3.20
2018-07-13T07:18:09.515Z,3.67
2018-07-13T07:20:38.134Z,3.33
2018-07-13T07:23:06.868Z,3.67
2018-07-13T07:25:35.586Z,3.77
2018-07-13T07:28:04.249Z,3.67
2018-07-13T07:30:33.478Z,3.47
2018-07-13T07:33:02.815Z,3.77
2018-07-13T07:35:31.745Z,3.60
2018-07-13T07:38:01.227Z,3.40
2018-07-13T07:40:30.000Z,3.17
2018-07-13T07:42:58.892Z,4.03
2018-07-13T07:45:27.776Z,3.60
2018-07-13T07:47:56.480Z,3.90
2018-07-13T07:50:25.876Z,3.50
2018-07-13T07:52:55.214Z,4.20
2018-07-13T07:55:24.407Z,3.67
2018-07-13T07:57:53.436Z,3.40
2018-07-13T08:00:28.306Z,3.23
2018-07-13T08:02:57.000Z,3.50
2018-07-13T08:05:25.707Z,3.70
2018-07-13T08:07:54.780Z,3.70
2018-07-13T08:10:23.530Z,3.50
2018-07-13T08:12:52.284Z,4.17
2018-07-13T08:15:21.035Z,3.97
2018-07-13T08:17:49.745Z,3.80
2018-07-13T08:20:29.331Z,3.83
2018-07-13T08:22:58.728Z,3.77
2018-07-13T08:25:28.091Z,3.13
2018-07-13T08:27:59.233Z,3.60
2018-07-13T08:30:30.907Z,3.73
2018-07-13T08:32:59.769Z,2.93
2018-07-13T08:35:29.715Z,4.30
2018-07-13T08:37:58.599Z,3.60
2018-07-13T08:40:27.318Z,4.00
2018-07-13T08:42:56.245Z,4.50
2018-07-13T08:45:24.927Z,4.07
2018-07-13T08:47:53.663Z,3.80
2018-07-13T08:50:23.179Z,4.20
2018-07-13T08:52:52.418Z,3.90
2018-07-13T08:55:21.269Z,3.73
2018-07-13T08:57:50.329Z,3.17
2018-07-13T09:00:19.504Z,3.73
2018-07-13T09:02:48.383Z,4.30
2018-07-13T09:05:17.231Z,4.37
2018-07-13T09:07:45.994Z,4.47
2018-07-13T09:10:15.644Z,3.87
2018-07-13T09:12:44.388Z,4.50
2018-07-13T09:15:14.132Z,3.83
2018-07-13T09:17:42.809Z,3.47
2018-07-13T09:20:12.706Z,3.77
2018-07-13T09:22:41.523Z,4.17
2018-07-13T09:25:11.041Z,3.50
2018-07-13T09:27:40.366Z,3.97
2018-07-13T09:30:10.285Z,3.53
2018-07-13T09:32:39.022Z,3.90
2018-07-13T09:35:07.896Z,4.13
2018-07-13T09:37:36.716Z,3.90
2018-07-13T09:40:05.613Z,4.07
2018-07-13T09:42:34.557Z,3.43
2018-07-13T09:45:03.348Z,4.20
2018-07-13T09:47:32.038Z,3.40
2018-07-13T09:50:00.724Z,3.10
2018-07-13T09:52:29.494Z,3.97
2018-07-13T09:54:58.185Z,4.27
2018-07-13T09:57:27.049Z,3.93
2018-07-13T09:59:56.049Z,3.33
2018-07-13T10:02:24.735Z,3.73
2018-07-13T10:04:53.401Z,4.00
2018-07-13T10:07:22.154Z,3.73
2018-07-13T10:09:57.240Z,3.50
2018-07-13T10:12:25.951Z,4.20
2018-07-13T10:14:54.636Z,3.90
2018-07-13T10:17:23.317Z,4.10
2018-07-13T10:19:52.124Z,3.63
2018-07-13T10:22:24.089Z,4.00
2018-07-13T10:24:53.610Z,4.03
2018-07-13T10:27:23.038Z,3.70
2018-07-13T10:29:54.486Z,3.60
2018-07-13T10:32:23.359Z,3.90
2018-07-13T10:34:52.656Z,3.77
2018-07-13T10:37:21.490Z,4.10
2018-07-13T10:39:50.194Z,3.43
2018-07-13T10:42:18.867Z,3.67
2018-07-13T10:44:47.607Z,3.40
2018-07-13T10:47:17.418Z,4.00
2018-07-13T10:49:46.106Z,3.60
2018-07-13T10:52:16.061Z,3.67
2018-07-13T10:54:44.871Z,3.80
2018-07-13T10:57:14.116Z,3.67
2018-07-13T10:59:42.828Z,3.87
2018-07-13T11:02:13.652Z,3.97
2018-07-13T11:04:42.359Z,3.73
2018-07-13T11:07:11.966Z,4.20
2018-07-13T11:09:40.917Z,3.30
2018-07-13T11:12:12.851Z,3.50
2018-07-13T11:14:41.683Z,3.43
2018-07-13T11:17:10.573Z,4.07
2018-07-13T11:19:39.492Z,3.70
2018-07-13T11:22:09.524Z,3.30
2018-07-13T11:24:38.450Z,3.70
2018-07-13T11:27:07.438Z,3.30
2018-07-13T11:29:36.117Z,3.67
2018-07-13T11:32:04.849Z,3.40
2018-07-13T11:34:33.701Z,3.67
2018-07-13T11:37:02.708Z,3.73
2018-07-13T11:39:31.875Z,3.53
2018-07-13T11:42:00.771Z,3.47
2018-07-13T11:44:30.336Z,3.67
2018-07-13T11:46:59.027Z,3.00
2018-07-13T11:49:27.692Z,3.50
2018-07-13T11:51:56.385Z,3.60
2018-07-13T11:54:25.264Z,3.93
2018-07-13T11:56:54.165Z,3.03
2018-07-13T11:59:23.088Z,3.00
2018-07-13T12:01:51.888Z,3.60
2018-07-13T12:04:20.681Z,3.70
2018-07-13T12:06:49.358Z,3.50
2018-07-13T12:09:18.051Z,2.83
2018-07-13T12:11:46.650Z,3.10
2018-07-13T12:14:15.459Z,3.63
2018-07-13T12:16:44.211Z,3.03
2018-07-13T12:19:12.829Z,3.47
2018-07-13T12:21:41.588Z,3.87
2018-07-13T12:24:10.279Z,3.47
2018-07-13T12:26:38.919Z,3.57
2018-07-13T12:29:07.649Z,3.70
2018-07-13T12:31:36.277Z,3.80
2018-07-13T12:34:04.956Z,3.30
2018-07-13T12:36:33.684Z,3.80
2018-07-13T12:39:02.368Z,3.83
2018-07-13T12:41:31.089Z,3.57
2018-07-13T12:43:59.833Z,3.20
2018-07-13T12:46:28.581Z,3.67
2018-07-13T12:48:57.206Z,2.60
2018-07-13T12:51:25.883Z,3.43
2018-07-13T12:53:54.593Z,3.20
2018-07-13T12:56:23.214Z,3.73
2018-07-13T12:58:52.478Z,3.83
2018-07-13T13:01:21.093Z,3.40
2018-07-13T13:03:49.702Z,4.00
2018-07-13T13:06:18.372Z,3.60
2018-07-13T13:08:47.021Z,3.67
2018-07-13T13:11:15.831Z,3.70
2018-07-13T13:13:44.494Z,3.67
2018-07-13T13:16:13.739Z,3.57
2018-07-13T13:18:42.376Z,3.77
2018-07-13T13:21:11.014Z,3.30
2018-07-13T13:23:39.667Z,4.03
2018-07-13T13:26:08.334Z,3.23
2018-07-13T13:28:37.063Z,4.00
2018-07-13T13:31:05.639Z,3.50
2018-07-13T13:33:34.289Z,3.53
2018-07-13T13:36:02.941Z,3.40
2018-07-13T13:38:31.598Z,3.43
2018-07-13T13:41:00.272Z,3.70
2018-07-13T13:43:28.912Z,3.63
2018-07-13T13:45:57.526Z,3.90
2018-07-13T13:48:26.153Z,4.10
2018-07-13T13:50:54.839Z,3.90
2018-07-13T13:53:24.101Z,3.40
2018-07-13T13:55:52.743Z,3.50
2018-07-13T13:58:21.390Z,3.70
2018-07-13T14:00:50.065Z,4.20
2018-07-13T14:03:18.728Z,3.30
2018-07-13T14:05:47.837Z,3.80
2018-07-13T14:08:16.928Z,3.70
2018-07-13T14:10:45.614Z,3.47
2018-07-13T14:13:14.261Z,3.50
2018-07-13T14:15:43.007Z,3.70
2018-07-13T14:18:13.048Z,3.53
2018-07-13T14:20:41.717Z,3.43
2018-07-13T14:23:10.970Z,3.73
2018-07-13T14:25:39.626Z,3.20
2018-07-13T14:28:08.366Z,4.00
2018-07-13T14:30:37.991Z,3.07
2018-07-13T14:33:06.796Z,3.10
2018-07-13T14:35:35.470Z,3.17
2018-07-13T14:38:04.175Z,2.90
2018-07-13T14:40:32.896Z,2.80
2018-07-13T14:43:01.637Z,2.83
2018-07-13T14:45:31.058Z,4.50
2018-07-13T14:47:59.681Z,4.90
2018-07-13T14:50:28.576Z,4.03
2018-07-13T14:52:57.242Z,4.20
2018-07-13T14:55:25.884Z,4.10
2018-07-13T14:57:54.697Z,4.60
2018-07-13T15:00:23.366Z,4.30
2018-07-13T15:02:52.019Z,5.10
2018-07-13T15:05:20.653Z,4.67
2018-07-13T15:07:49.924Z,4.40
2018-07-13T15:10:19.712Z,4.47
2018-07-13T15:12:48.261Z,4.57
2018-07-13T15:15:16.984Z,4.47
2018-07-13T15:17:45.668Z,3.90
2018-07-13T15:20:16.254Z,4.30
2018-07-13T15:22:45.428Z,4.63
2018-07-13T15:25:14.118Z,4.63
2018-07-13T15:27:42.759Z,5.10
2018-07-13T15:30:12.309Z,4.83
2018-07-13T15:32:41.062Z,4.80
2018-07-13T15:35:09.746Z,4.40
2018-07-13T15:37:38.385Z,3.37
2018-07-13T15:40:08.813Z,3.10
2018-07-13T15:42:37.487Z,2.93
2018-07-13T15:45:06.718Z,2.60
2018-07-13T15:47:36.162Z,2.20
2018-07-13T15:50:05.631Z,3.00
2018-07-13T15:52:36.512Z,3.00
2018-07-13T15:55:05.367Z,3.00
2018-07-13T15:57:34.042Z,3.40
2018-07-13T16:00:02.863Z,3.80
2018-07-13T16:02:31.893Z,3.87
2018-07-13T16:05:00.677Z,4.10
2018-07-13T16:07:29.461Z,4.17
2018-07-13T16:09:58.177Z,3.87
2018-07-13T16:12:26.852Z,4.00
2018-07-13T16:14:55.499Z,4.37
2018-07-13T16:17:28.540Z,4.30
2018-07-13T16:19:57.467Z,4.90
2018-07-13T16:22:26.995Z,5.53
2018-07-13T16:24:55.981Z,4.03
2018-07-13T16:27:24.736Z,4.93
2018-07-13T16:29:56.042Z,4.67
2018-07-13T16:32:24.902Z,5.43
2018-07-13T16:34:53.664Z,5.03
2018-07-13T16:37:23.266Z,5.63
2018-07-13T16:39:52.107Z,5.73
2018-07-13T16:42:21.274Z,5.33
2018-07-13T16:44:50.174Z,5.20
2018-07-13T16:47:18.958Z,6.00
2018-07-13T16:49:48.208Z,5.60
2018-07-13T16:52:17.216Z,5.70
2018-07-13T16:54:45.961Z,4.90
2018-07-13T16:57:14.743Z,5.00
2018-07-13T16:59:43.470Z,6.03
2018-07-13T17:02:12.272Z,5.20
2018-07-13T17:04:41.027Z,5.50
2018-07-13T17:07:09.734Z,5.30
2018-07-13T17:09:38.524Z,5.00
2018-07-13T17:12:07.546Z,5.00
2018-07-13T17:14:36.295Z,4.77
2018-07-13T17:17:05.102Z,4.93
2018-07-13T17:19:33.808Z,5.00
2018-07-13T17:22:02.599Z,3.70
2018-07-13T17:24:31.456Z,4.57
2018-07-13T17:27:00.196Z,4.30
2018-07-13T17:29:28.979Z,4.10
2018-07-13T17:31:57.919Z,4.43
2018-07-13T17:34:26.677Z,5.30
2018-07-13T17:36:55.448Z,3.73
2018-07-13T17:39:24.388Z,3.80
2018-07-13T17:41:53.165Z,4.00
2018-07-13T17:44:21.941Z,3.90
2018-07-13T17:46:50.705Z,4.20
2018-07-13T17:49:19.602Z,3.17
2018-07-13T17:51:48.303Z,4.10
2018-07-13T17:54:17.356Z,4.20
2018-07-13T17:56:46.146Z,4.13
2018-07-13T17:59:14.833Z,3.90
2018-07-13T18:01:43.651Z,4.20
2018-07-13T18:04:14.711Z,3.73
2018-07-13T18:06:43.441Z,3.90
2018-07-13T18:09:12.865Z,3.50
2018-07-13T18:11:42.563Z,4.50
2018-07-13T18:14:13.526Z,3.80
2018-07-13T18:16:42.330Z,4.00
2018-07-13T18:19:11.134Z,4.00
2018-07-13T18:21:40.039Z,3.67
2018-07-13T18:24:08.831Z,4.40
2018-07-13T18:26:37.503Z,3.70
2018-07-13T18:29:06.190Z,4.13
2018-07-13T18:31:34.834Z,4.20
2018-07-13T18:34:04.306Z,4.40
2018-07-13T18:36:33.110Z,4.30
2018-07-13T18:39:02.009Z,3.90
2018-07-13T18:41:30.706Z,4.10
2018-07-13T18:43:59.320Z,4.33
2018-07-13T18:46:28.030Z,4.40
2018-07-13T18:48:56.787Z,3.60
2018-07-13T18:51:25.450Z,4.33
2018-07-13T18:53:54.122Z,4.20
2018-07-13T18:56:23.193Z,4.37
2018-07-13T18:58:51.787Z,4.07
2018-07-13T19:01:20.421Z,3.60
2018-07-13T19:03:49.034Z,4.00
2018-07-13T19:06:17.785Z,4.10
2018-07-13T19:08:46.450Z,3.73
2018-07-13T19:11:15.087Z,4.00
2018-07-13T19:13:43.786Z,3.73
2018-07-13T19:16:12.513Z,3.97
2018-07-13T19:18:41.198Z,4.57
2018-07-13T19:21:10.021Z,3.93
2018-07-13T19:23:39.093Z,3.87
2018-07-13T19:26:07.843Z,4.17
2018-07-13T19:28:36.991Z,4.03
2018-07-13T19:31:05.861Z,4.80
2018-07-13T19:33:35.159Z,4.53
2018-07-13T19:36:03.884Z,4.27
2018-07-13T19:38:33.380Z,4.17
2018-07-13T19:41:02.155Z,4.40
2018-07-13T19:43:30.989Z,4.43
2018-07-13T19:45:59.769Z,4.13
2018-07-13T19:50:52.524Z,4.40
2018-07-13T19:53:21.262Z,4.33
2018-07-13T19:55:49.959Z,4.57
2018-07-13T19:58:18.734Z,4.60
2018-07-13T20:00:47.658Z,4.40
2018-07-13T20:03:17.240Z,4.70
2018-07-13T20:05:46.073Z,4.17
2018-07-13T20:08:14.812Z,4.87
2018-07-13T20:10:43.499Z,4.73
2018-07-13T20:13:12.248Z,4.27
2018-07-13T20:15:40.976Z,4.63
2018-07-13T20:18:09.430Z,5.10
2018-07-13T20:20:38.263Z,4.60
2018-07-13T20:23:07.009Z,4.20
2018-07-13T20:25:35.802Z,5.10
2018-07-13T20:28:04.492Z,3.90
2018-07-13T20:30:33.255Z,5.07
2018-07-13T20:33:01.979Z,3.90
2018-07-13T20:35:30.878Z,4.73
2018-07-13T20:37:59.761Z,5.00
2018-07-13T20:40:28.548Z,4.73
2018-07-13T20:42:57.277Z,4.70
2018-07-13T20:45:26.007Z,4.30
2018-07-13T20:47:54.680Z,4.40
2018-07-13T20:50:23.354Z,4.60
2018-07-13T20:52:52.487Z,4.40
2018-07-13T20:55:21.346Z,4.50
2018-07-13T20:57:50.220Z,4.30
2018-07-13T21:00:20.481Z,4.87
2018-07-13T21:02:49.479Z,4.20
2018-07-13T21:05:24.974Z,4.10
2018-07-13T21:07:54.110Z,4.77
2018-07-13T21:10:24.587Z,4.50
2018-07-13T21:12:53.349Z,5.03
2018-07-13T21:15:22.068Z,4.33
2018-07-13T21:17:50.772Z,3.67
2018-07-13T21:20:19.559Z,4.10
2018-07-13T21:22:48.281Z,4.40
2018-07-13T21:25:16.999Z,4.30
2018-07-13T21:27:45.711Z,3.97
2018-07-13T21:30:14.738Z,4.03
2018-07-13T21:32:44.555Z,4.77
2018-07-13T21:35:13.218Z,4.20
2018-07-13T21:37:42.046Z,4.13
2018-07-13T21:40:10.750Z,4.07
2018-07-13T21:42:39.478Z,4.17
2018-07-13T21:45:08.245Z,4.50
2018-07-13T21:47:37.601Z,4.00
2018-07-13T21:50:06.348Z,4.07
2018-07-13T21:52:35.095Z,4.30
2018-07-13T21:55:03.840Z,4.80
2018-07-13T21:57:32.530Z,4.10
2018-07-13T22:00:01.221Z,4.00
2018-07-13T22:02:30.072Z,3.90
2018-07-13T22:04:58.776Z,4.60
2018-07-13T22:07:27.399Z,4.20
2018-07-13T22:09:56.114Z,3.93
2018-07-13T22:12:24.794Z,3.90
2018-07-13T22:14:53.858Z,4.00
2018-07-13T22:17:22.547Z,3.80
2018-07-13T22:19:51.351Z,4.50
2018-07-13T22:22:20.084Z,4.40
2018-07-13T22:24:48.882Z,3.80
2018-07-13T22:27:17.530Z,4.47
2018-07-13T22:29:46.218Z,4.00
2018-07-13T22:32:15.498Z,4.70
2018-07-13T22:34:44.214Z,4.27
2018-07-13T22:37:12.919Z,4.40
2018-07-13T22:39:41.591Z,4.60
2018-07-13T22:42:10.404Z,4.40
2018-07-13T22:44:39.119Z,5.10
2018-07-13T22:47:07.917Z,4.30
2018-07-13T22:49:36.590Z,5.20
2018-07-13T22:52:05.200Z,4.60
2018-07-13T22:54:33.810Z,4.00
2018-07-13T22:57:02.457Z,4.53
2018-07-13T22:59:31.106Z,5.00
2018-07-13T23:01:59.888Z,5.17
2018-07-13T23:04:28.534Z,4.80
2018-07-13T23:06:57.190Z,4.80
2018-07-13T23:09:25.762Z,4.30
2018-07-13T23:11:54.413Z,5.20
2018-07-13T23:14:22.993Z,5.00
2018-07-13T23:16:51.586Z,4.50
2018-07-13T23:19:20.286Z,4.30
2018-07-13T23:21:48.909Z,5.00
2018-07-13T23:24:17.710Z,5.63
2018-07-13T23:26:46.409Z,4.77
2018-07-13T23:29:15.022Z,5.03
2018-07-13T23:31:43.682Z,4.70
2018-07-13T23:34:12.366Z,4.93
2018-07-13T23:36:41.746Z,5.80
2018-07-13T23:39:10.379Z,5.07
2018-07-13T23:41:39.338Z,4.40
2018-07-13T23:44:08.100Z,5.00
2018-07-13T23:46:36.740Z,4.97
2018-07-13T23:49:05.461Z,5.20
2018-07-13T23:51:34.073Z,5.47
2018-07-13T23:54:02.774Z,4.63
2018-07-13T23:56:31.417Z,4.60
2018-07-13T23:59:00.031Z,4.97
